Baker, Nevada
Current Conditions -  °F | °C
As of 6:11 AM on Wednesday 28 Jan 2015 (Local Time) from KELY Reporting Station
Scattered Clouds Scattered Clouds  
Wind Chill: 26°   Ceiling: Unl
Heat Index: 33°   Visibility: 10mi
Dew Point: 31°   Wind: 8mph
Humidity: 92%   Direction: 290°WNW
Pressure: 30.29"   Gusts: NA
Location:  39.01°N, 114.13°W
Report Text: KELY 281411Z AUTO 29007KT 10SM SCT027 SCT055 01/M01 A3029 RMK AO2 T00061006
Loading
Personal Weather Stations






























Interactive Weather Map New forecast layout! Learn more

10-Day Weather Forecast

Advertisements
Track Severe Weather on mobile